Time;durP1;ratioP1;P1;durP2;ratioP2;P2;SDS_P1;SDS_P2;PMS_P1;PMS_P2;Temp;Humidity;BMP_temperature;BMP_pressure;BME280_temperature;BME280_humidity;BME280_pressure;Samples;Min_cycle;Max_cycle;Signal;HPM_P1;HPM_P2
2020/12/15 00:02:24;;;;;;;10.85;5.68;;;7.90;99.90;;;;;;4989128;28;20046;-78
2020/12/15 00:04:51;;;;;;;10.25;5.65;;;7.80;99.90;;;;;;4987969;28;20137;-77
2020/12/15 00:07:17;;;;;;;11.20;6.13;;;7.90;99.90;;;;;;4991343;28;20046;-77
2020/12/15 00:09:43;;;;;;;8.50;5.25;;;8.00;99.90;;;;;;4988308;28;20385;-78
2020/12/15 00:12:10;;;;;;;9.93;5.82;;;8.00;99.90;;;;;;4990849;28;20108;-78
2020/12/15 00:14:38;;;;;;;14.52;6.20;;;7.90;99.90;;;;;;4990224;28;20057;-78
2020/12/15 00:17:05;;;;;;;12.43;5.93;;;7.90;99.90;;;;;;4988151;28;20058;-80
2020/12/15 00:19:32;;;;;;;11.18;5.97;;;7.90;99.90;;;;;;4979317;28;20053;-77
2020/12/15 00:22:01;;;;;;;10.10;5.82;;;7.80;99.90;;;;;;4991075;28;20068;-77
2020/12/15 00:24:28;;;;;;;9.60;5.00;;;7.90;99.90;;;;;;4995424;28;20049;-78
2020/12/15 00:26:55;;;;;;;10.10;5.68;;;8.00;99.90;;;;;;4992438;28;20121;-79
2020/12/15 00:29:22;;;;;;;9.52;5.22;;;8.00;99.90;;;;;;4993739;28;20520;-77
2020/12/15 00:31:48;;;;;;;10.52;5.95;;;8.00;99.90;;;;;;4992032;28;20053;-77
2020/12/15 00:34:15;;;;;;;10.73;6.50;;;7.90;99.90;;;;;;4992920;28;20092;-78
2020/12/15 00:36:41;;;;;;;12.27;6.47;;;8.00;99.90;;;;;;4975912;28;20050;-78
2020/12/15 00:39:08;;;;;;;12.90;6.70;;;8.10;99.90;;;;;;4995335;28;20053;-78
2020/12/15 00:41:35;;;;;;;10.43;6.25;;;8.10;99.90;;;;;;4991601;28;20053;-79
2020/12/15 00:44:01;;;;;;;11.82;5.95;;;8.00;99.90;;;;;;4983842;28;20050;-78
2020/12/15 00:46:28;;;;;;;10.15;5.95;;;8.10;99.90;;;;;;4981814;28;20069;-77
2020/12/15 00:48:55;;;;;;;10.30;6.05;;;8.10;99.90;;;;;;4973495;28;20046;-78
2020/12/15 00:51:21;;;;;;;9.85;5.75;;;8.10;99.90;;;;;;4992726;28;20063;-77
2020/12/15 00:53:48;;;;;;;10.07;5.72;;;8.10;99.90;;;;;;4977111;28;20052;-78
2020/12/15 00:56:15;;;;;;;9.80;5.25;;;8.20;99.90;;;;;;4981708;28;20058;-80
2020/12/15 00:58:42;;;;;;;10.40;5.70;;;8.10;99.90;;;;;;4973238;28;20054;-78
2020/12/15 01:01:10;;;;;;;8.23;5.20;;;8.10;99.90;;;;;;4990929;28;20061;-77
2020/12/15 01:03:36;;;;;;;14.02;6.32;;;8.20;99.90;;;;;;4990698;28;20065;-78
2020/12/15 01:06:04;;;;;;;9.45;5.40;;;8.10;99.90;;;;;;4993785;28;20065;-77
2020/12/15 01:08:31;;;;;;;8.27;5.55;;;8.10;99.90;;;;;;4993226;28;20087;-77
2020/12/15 01:11:11;;;;;;;14.07;5.70;;;7.90;99.90;;;;;;4975574;28;20046;-78
2020/12/15 01:13:38;;;;;;;11.27;5.78;;;7.90;99.90;;;;;;4983242;28;20050;-80
2020/12/15 01:16:05;;;;;;;10.68;5.70;;;7.80;99.90;;;;;;4998911;28;20517;-76
2020/12/15 01:18:34;;;;;;;11.43;5.95;;;7.90;99.90;;;;;;4995307;28;20057;-77
2020/12/15 01:21:04;;;;;;;8.35;5.53;;;8.00;99.90;;;;;;4994709;28;20467;-78
2020/12/15 01:23:31;;;;;;;8.98;5.53;;;8.00;99.90;;;;;;4996286;28;20054;-78
2020/12/15 01:25:58;;;;;;;9.35;5.43;;;8.00;99.90;;;;;;4993654;28;20057;-77
2020/12/15 01:28:26;;;;;;;9.90;5.82;;;7.90;99.90;;;;;;4996668;28;20468;-77
2020/12/15 01:30:54;;;;;;;10.13;5.85;;;7.90;99.90;;;;;;4996023;28;20050;-77
2020/12/15 01:33:22;;;;;;;8.98;5.50;;;8.00;99.90;;;;;;4998486;28;20090;-76
2020/12/15 01:35:49;;;;;;;8.93;6.05;;;8.00;99.90;;;;;;4994212;28;20048;-77
2020/12/15 01:38:15;;;;;;;8.75;5.43;;;8.10;99.90;;;;;;4979094;28;20041;-78
2020/12/15 01:40:50;;;;;;;10.52;6.07;;;8.00;99.90;;;;;;4994168;28;20042;-78
2020/12/15 01:43:17;;;;;;;9.55;5.55;;;8.00;99.90;;;;;;4994851;28;20066;-77
2020/12/15 01:45:45;;;;;;;11.38;5.95;;;8.00;99.90;;;;;;4994923;28;20054;-77
2020/12/15 01:48:12;;;;;;;9.43;5.47;;;7.90;99.90;;;;;;4976526;28;20134;-77
2020/12/15 01:50:39;;;;;;;9.15;5.63;;;7.90;99.90;;;;;;4994787;28;20058;-77
2020/12/15 01:53:12;;;;;;;10.90;6.45;;;7.90;99.90;;;;;;4995887;28;20102;-77
2020/12/15 01:55:40;;;;;;;10.50;5.93;;;7.90;99.90;;;;;;4983354;28;20054;-79
2020/12/15 01:58:10;;;;;;;12.07;6.45;;;7.90;99.90;;;;;;4977372;28;20054;-78
2020/12/15 02:00:36;;;;;;;16.50;6.63;;;7.80;99.90;;;;;;4991078;28;20054;-79
2020/12/15 02:03:03;;;;;;;10.27;5.70;;;7.90;99.90;;;;;;4985755;28;20057;-77
2020/12/15 02:05:30;;;;;;;11.27;6.70;;;7.90;99.90;;;;;;4996870;28;20061;-76
2020/12/15 02:07:57;;;;;;;11.60;6.35;;;8.10;99.90;;;;;;4992854;28;20602;-77
2020/12/15 02:10:24;;;;;;;12.45;6.22;;;7.90;99.90;;;;;;4985352;28;20058;-78
2020/12/15 02:12:51;;;;;;;11.65;6.80;;;7.90;99.90;;;;;;4978991;28;20073;-77
2020/12/15 02:15:17;;;;;;;9.77;5.80;;;8.00;99.90;;;;;;4994088;28;20054;-77
2020/12/15 02:17:44;;;;;;;12.65;6.18;;;8.10;99.90;;;;;;4984441;28;20125;-78
2020/12/15 02:20:11;;;;;;;11.48;5.78;;;8.10;99.90;;;;;;4993404;28;20069;-77
2020/12/15 02:22:37;;;;;;;12.10;5.80;;;8.10;99.90;;;;;;4986858;28;20437;-77
2020/12/15 02:25:08;;;;;;;12.73;6.32;;;8.20;99.90;;;;;;4992162;28;20058;-78
2020/12/15 02:27:36;;;;;;;13.20;6.90;;;8.10;99.90;;;;;;4992900;28;20050;-78
2020/12/15 02:30:08;;;;;;;11.68;6.47;;;8.10;99.90;;;;;;4995576;28;20042;-77
2020/12/15 02:32:35;;;;;;;13.80;6.95;;;8.10;99.90;;;;;;4994572;28;20050;-77
2020/12/15 02:35:03;;;;;;;11.88;6.53;;;8.00;99.90;;;;;;4994671;28;20131;-77
2020/12/15 02:37:30;;;;;;;11.27;6.80;;;8.00;99.90;;;;;;4995559;28;20057;-77
2020/12/15 02:39:58;;;;;;;11.02;5.93;;;8.00;99.90;;;;;;4995929;28;20130;-79
2020/12/15 02:42:28;;;;;;;11.13;5.65;;;8.10;99.90;;;;;;4992673;28;20058;-78
2020/12/15 02:44:55;;;;;;;11.43;6.50;;;8.20;99.90;;;;;;4992139;28;20046;-77
2020/12/15 02:47:22;;;;;;;13.35;6.65;;;8.10;99.90;;;;;;4994093;28;20485;-78
2020/12/15 02:49:49;;;;;;;11.45;6.63;;;8.10;99.90;;;;;;4985539;28;20161;-77
2020/12/15 02:52:17;;;;;;;12.80;6.57;;;8.10;99.90;;;;;;4984815;28;20049;-78
2020/12/15 02:54:43;;;;;;;13.07;6.45;;;8.10;99.90;;;;;;4996923;28;20057;-77
2020/12/15 02:57:09;;;;;;;13.10;6.50;;;8.10;99.90;;;;;;4984213;28;20049;-78
2020/12/15 02:59:36;;;;;;;12.93;6.97;;;8.00;99.90;;;;;;5005247;28;20054;-78
2020/12/15 03:02:05;;;;;;;13.68;7.20;;;8.00;99.90;;;;;;4988100;28;20073;-77
2020/12/15 03:04:32;;;;;;;16.58;7.28;;;8.10;99.90;;;;;;5006871;28;20054;-78
2020/12/15 03:06:58;;;;;;;14.30;7.78;;;8.10;99.90;;;;;;5009856;28;20405;-78
2020/12/15 03:09:25;;;;;;;12.65;7.13;;;8.10;99.90;;;;;;4992650;28;20045;-78
2020/12/15 03:11:56;;;;;;;11.88;6.78;;;8.00;99.90;;;;;;5009685;28;20054;-78
2020/12/15 03:14:23;;;;;;;12.55;6.32;;;8.00;99.90;;;;;;5010366;28;20378;-78
2020/12/15 03:16:50;;;;;;;12.48;6.88;;;8.00;99.90;;;;;;4995025;28;20432;-76
2020/12/15 03:19:17;;;;;;;13.07;7.72;;;7.90;99.90;;;;;;4991722;28;20486;-77
2020/12/15 03:21:45;;;;;;;12.20;6.93;;;7.90;99.90;;;;;;4994517;28;20481;-78
2020/12/15 03:24:12;;;;;;;13.68;7.13;;;7.90;99.90;;;;;;5011028;28;20046;-77
2020/12/15 03:26:38;;;;;;;13.60;7.13;;;7.80;99.90;;;;;;4987367;28;20053;-78
2020/12/15 03:29:05;;;;;;;12.27;6.93;;;7.80;99.90;;;;;;5004838;28;20409;-79
2020/12/15 03:31:32;;;;;;;12.85;6.85;;;7.80;99.90;;;;;;5003080;28;20058;-77
2020/12/15 03:33:59;;;;;;;12.35;6.60;;;7.80;99.90;;;;;;5005578;28;20099;-78
2020/12/15 03:36:25;;;;;;;14.13;7.18;;;7.80;99.90;;;;;;4991384;28;20042;-78
2020/12/15 03:38:51;;;;;;;13.00;6.97;;;7.90;99.90;;;;;;5007222;28;20413;-79
2020/12/15 03:41:19;;;;;;;11.43;6.88;;;7.80;99.90;;;;;;4993021;28;20052;-78
2020/12/15 03:43:46;;;;;;;11.68;6.97;;;7.80;99.90;;;;;;4994879;28;20422;-77
2020/12/15 03:46:13;;;;;;;12.27;7.25;;;7.70;99.90;;;;;;4993568;28;20041;-79
2020/12/15 03:48:39;;;;;;;11.82;6.93;;;7.70;99.90;;;;;;5007959;28;20050;-78
2020/12/15 03:51:06;;;;;;;14.35;7.50;;;7.80;99.90;;;;;;5011268;28;20378;-78
2020/12/15 03:53:32;;;;;;;11.55;7.15;;;7.80;99.90;;;;;;5005803;28;20057;-78
2020/12/15 03:55:59;;;;;;;14.90;7.28;;;7.80;99.90;;;;;;4991418;28;20069;-77
2020/12/15 03:58:25;;;;;;;16.77;7.45;;;7.80;99.90;;;;;;4985993;28;20061;-78
2020/12/15 04:00:52;;;;;;;13.30;7.88;;;7.80;99.90;;;;;;5008673;28;20085;-78
2020/12/15 04:03:19;;;;;;;13.10;6.80;;;7.90;99.90;;;;;;4992333;28;20045;-78
2020/12/15 04:05:45;;;;;;;14.57;7.68;;;7.80;99.90;;;;;;4991447;28;20049;-78
2020/12/15 04:08:12;;;;;;;11.43;6.88;;;7.80;99.90;;;;;;4991220;28;20046;-78
2020/12/15 04:10:38;;;;;;;16.08;7.18;;;7.80;99.90;;;;;;4988570;28;20505;-78
2020/12/15 04:13:05;;;;;;;15.98;8.10;;;7.70;99.90;;;;;;5007401;28;20132;-78
2020/12/15 04:15:31;;;;;;;12.60;7.80;;;7.80;99.90;;;;;;5012858;28;20054;-78
2020/12/15 04:17:58;;;;;;;13.90;7.90;;;7.60;99.90;;;;;;5003412;28;20051;-78
2020/12/15 04:20:24;;;;;;;16.95;8.88;;;7.70;99.90;;;;;;5001938;28;20394;-78
2020/12/15 04:22:51;;;;;;;17.67;9.23;;;7.30;99.90;;;;;;5010062;28;20050;-79
2020/12/15 04:25:17;;;;;;;17.08;8.63;;;7.50;99.90;;;;;;4988994;28;20060;-79
2020/12/15 04:27:43;;;;;;;17.92;9.35;;;7.50;99.90;;;;;;5008318;28;20052;-78
2020/12/15 04:30:10;;;;;;;17.05;9.07;;;7.40;99.90;;;;;;4990286;28;20048;-78
2020/12/15 04:32:36;;;;;;;17.67;9.82;;;7.40;99.90;;;;;;5009041;28;20057;-78
2020/12/15 04:35:04;;;;;;;18.63;9.63;;;7.50;99.90;;;;;;5002868;28;20532;-76
2020/12/15 04:37:30;;;;;;;24.33;10.43;;;7.50;99.90;;;;;;4984004;28;20057;-78
2020/12/15 04:39:57;;;;;;;20.23;9.98;;;7.60;99.90;;;;;;5011976;28;20401;-78
2020/12/15 04:42:23;;;;;;;16.73;9.60;;;7.60;99.90;;;;;;5004195;28;20054;-78
2020/12/15 04:44:51;;;;;;;18.15;9.75;;;7.60;99.90;;;;;;5000949;28;20057;-78
2020/12/15 04:47:32;;;;;;;20.35;10.32;;;7.60;99.90;;;;;;5012022;28;20038;-78
2020/12/15 04:50:09;;;;;;;21.23;9.75;;;7.60;99.90;;;;;;5003620;28;20463;-78
2020/12/15 04:53:09;;;;;;;20.35;10.40;;;7.60;99.90;;;;;;5002068;28;20049;-78
2020/12/15 04:55:38;;;;;;;19.50;10.10;;;7.70;99.90;;;;;;4958651;28;20053;-78
2020/12/15 04:58:05;;;;;;;19.85;9.90;;;7.80;99.90;;;;;;5009027;28;20453;-78
2020/12/15 05:00:34;;;;;;;17.60;9.82;;;7.80;99.90;;;;;;4997085;28;20477;-78
2020/12/15 05:03:02;;;;;;;20.90;11.10;;;7.90;99.90;;;;;;5010493;28;20442;-78
2020/12/15 05:05:30;;;;;;;18.35;10.60;;;7.80;99.90;;;;;;5000047;28;20077;-78
2020/12/15 05:08:02;;;;;;;22.08;11.60;;;7.80;99.90;;;;;;4987129;28;20074;-78
2020/12/15 05:10:29;;;;;;;22.83;11.13;;;7.80;99.90;;;;;;4990085;28;20129;-78
2020/12/15 05:12:56;;;;;;;21.30;10.43;;;7.80;99.90;;;;;;5008771;28;20057;-78
2020/12/15 05:15:22;;;;;;;21.42;11.50;;;7.70;99.90;;;;;;5011590;28;20152;-78
2020/12/15 05:17:49;;;;;;;21.52;11.32;;;7.60;99.90;;;;;;5006282;28;20076;-78
2020/12/15 05:20:18;;;;;;;23.80;12.50;;;7.70;99.90;;;;;;5009556;28;20058;-77
2020/12/15 05:22:46;;;;;;;20.42;11.52;;;7.70;99.90;;;;;;5008871;28;20046;-77
2020/12/15 05:25:25;;;;;;;21.08;10.57;;;7.70;99.90;;;;;;4991969;28;20042;-76
2020/12/15 05:27:53;;;;;;;20.65;11.35;;;7.70;99.90;;;;;;5009095;28;20489;-77
2020/12/15 05:30:19;;;;;;;21.20;11.73;;;7.70;99.90;;;;;;4993606;28;20393;-76
2020/12/15 05:32:54;;;;;;;22.95;11.30;;;7.50;99.90;;;;;;5009909;28;20049;-76
2020/12/15 05:35:26;;;;;;;16.13;9.45;;;7.60;99.90;;;;;;5008695;28;20050;-77
2020/12/15 05:37:53;;;;;;;19.45;10.85;;;7.60;99.90;;;;;;5009903;28;20473;-77
2020/12/15 05:40:19;;;;;;;16.98;9.45;;;7.60;99.90;;;;;;4986233;28;20057;-77
2020/12/15 05:42:57;;;;;;;17.65;9.15;;;7.70;99.90;;;;;;5010707;28;20046;-77
2020/12/15 05:45:24;;;;;;;15.70;8.90;;;7.60;99.90;;;;;;4986773;28;20034;-77
2020/12/15 05:48:02;;;;;;;16.30;9.07;;;7.60;99.90;;;;;;5011323;28;20061;-76
2020/12/15 05:50:29;;;;;;;17.30;8.38;;;7.60;99.90;;;;;;5005690;28;20049;-76
2020/12/15 05:53:02;;;;;;;15.23;9.00;;;7.70;99.90;;;;;;5010522;28;20052;-76
2020/12/15 05:55:29;;;;;;;14.55;8.15;;;7.60;99.90;;;;;;5004305;28;20050;-77
2020/12/15 05:57:56;;;;;;;15.57;8.77;;;7.60;99.90;;;;;;5003680;28;20056;-76
2020/12/15 06:00:28;;;;;;;16.92;8.68;;;7.60;99.90;;;;;;5008206;28;20050;-76
2020/12/15 06:03:05;;;;;;;16.48;9.02;;;7.50;99.90;;;;;;5007823;28;20057;-77
2020/12/15 06:05:36;;;;;;;15.82;8.50;;;7.60;99.90;;;;;;5003622;28;20042;-77
2020/12/15 06:08:03;;;;;;;15.88;8.93;;;7.50;99.90;;;;;;5013716;28;20056;-78
2020/12/15 06:10:31;;;;;;;18.20;8.73;;;7.60;99.90;;;;;;4987154;28;20069;-77
2020/12/15 06:13:00;;;;;;;12.88;7.63;;;7.60;99.90;;;;;;4991530;28;20386;-77
2020/12/15 06:15:27;;;;;;;18.25;8.32;;;7.60;99.90;;;;;;5003237;28;20062;-78
2020/12/15 06:17:54;;;;;;;16.02;8.57;;;7.60;99.90;;;;;;5011249;28;20041;-77
2020/12/15 06:20:21;;;;;;;11.75;7.90;;;7.60;99.90;;;;;;4994793;28;20054;-77
2020/12/15 06:22:53;;;;;;;14.95;8.48;;;7.60;99.90;;;;;;4995091;28;20052;-77
2020/12/15 06:25:33;;;;;;;13.50;7.85;;;7.60;99.90;;;;;;4994334;28;20454;-77
2020/12/15 06:28:11;;;;;;;13.75;7.63;;;7.70;99.90;;;;;;4997066;28;20037;-77
2020/12/15 06:30:39;;;;;;;17.55;8.18;;;7.80;99.90;;;;;;5008822;28;20050;-78
2020/12/15 06:33:08;;;;;;;17.55;8.10;;;7.80;99.90;;;;;;4988679;28;20449;-78
2020/12/15 06:35:36;;;;;;;14.43;8.10;;;7.80;99.90;;;;;;4993927;28;20052;-77
2020/12/15 06:38:15;;;;;;;13.05;7.60;;;7.90;99.90;;;;;;4994970;28;20292;-78
2020/12/15 06:40:45;;;;;;;19.65;7.63;;;7.90;99.90;;;;;;5000760;28;20042;-78
2020/12/15 06:43:22;;;;;;;12.55;7.50;;;7.90;99.90;;;;;;5010072;28;20057;-77
2020/12/15 06:45:49;;;;;;;13.38;7.65;;;7.90;99.90;;;;;;5011070;28;20379;-79
2020/12/15 06:48:22;;;;;;;14.75;7.85;;;7.90;99.90;;;;;;5010268;28;20069;-78
2020/12/15 06:50:48;;;;;;;13.07;7.65;;;8.00;99.90;;;;;;5011013;28;20477;-78
2020/12/15 06:53:18;;;;;;;17.65;9.07;;;7.90;99.90;;;;;;5012213;28;20058;-77
2020/12/15 06:55:45;;;;;;;16.65;8.32;;;7.90;99.90;;;;;;5005063;28;20054;-77
2020/12/15 06:58:22;;;;;;;14.27;7.72;;;8.00;99.90;;;;;;5007996;28;20061;-76
2020/12/15 07:00:49;;;;;;;15.30;7.75;;;8.00;99.90;;;;;;4990883;28;20380;-78
2020/12/15 07:03:17;;;;;;;13.70;7.78;;;8.10;99.90;;;;;;5008813;28;20065;-78
2020/12/15 07:05:44;;;;;;;14.00;7.97;;;8.00;99.90;;;;;;4988129;28;20389;-78
2020/12/15 07:08:12;;;;;;;13.82;7.38;;;8.10;99.90;;;;;;5013365;28;20496;-78
2020/12/15 07:10:42;;;;;;;14.32;8.20;;;8.10;99.90;;;;;;5003370;28;20040;-77
2020/12/15 07:13:12;;;;;;;15.73;7.95;;;8.20;99.90;;;;;;5014513;28;20050;-78
2020/12/15 07:15:39;;;;;;;13.10;7.78;;;8.20;99.90;;;;;;4996943;28;20133;-78
2020/12/15 07:18:06;;;;;;;14.05;7.50;;;8.20;99.90;;;;;;5016953;28;20713;-77
2020/12/15 07:20:33;;;;;;;14.35;7.95;;;8.20;99.90;;;;;;5007159;28;20410;-78
2020/12/15 07:23:01;;;;;;;18.05;9.13;;;8.30;99.90;;;;;;4994698;28;20129;-77
2020/12/15 07:25:27;;;;;;;14.30;8.43;;;8.20;99.90;;;;;;4993683;28;20049;-77
2020/12/15 07:27:54;;;;;;;15.73;8.00;;;8.20;99.90;;;;;;5006220;28;20053;-77
2020/12/15 07:30:22;;;;;;;11.95;7.53;;;8.20;99.90;;;;;;5002146;28;20054;-77
2020/12/15 07:32:49;;;;;;;14.02;7.75;;;8.10;99.90;;;;;;5013403;28;20050;-77
2020/12/15 07:35:25;;;;;;;17.40;7.38;;;8.10;99.90;;;;;;4991785;28;20050;-77
2020/12/15 07:37:56;;;;;;;14.27;7.00;;;8.10;99.90;;;;;;4998789;28;20065;-78
2020/12/15 07:40:29;;;;;;;12.75;7.22;;;8.10;99.90;;;;;;4999611;28;20116;-77
2020/12/15 07:43:00;;;;;;;11.40;6.63;;;8.00;99.90;;;;;;4991348;28;20133;-77
2020/12/15 07:45:29;;;;;;;13.25;7.05;;;7.90;99.90;;;;;;4993616;28;20038;-77
2020/12/15 07:47:57;;;;;;;14.30;7.00;;;7.90;99.90;;;;;;5003417;28;20470;-76
2020/12/15 07:50:29;;;;;;;13.32;7.53;;;7.90;99.90;;;;;;4993785;28;20482;-77
2020/12/15 07:53:07;;;;;;;14.13;7.53;;;7.90;99.90;;;;;;4995291;28;20104;-77
2020/12/15 07:55:33;;;;;;;21.45;8.63;;;7.90;99.90;;;;;;5005085;28;20049;-78
2020/12/15 07:58:02;;;;;;;18.48;9.70;;;7.90;99.90;;;;;;4994596;28;20100;-78
2020/12/15 08:00:30;;;;;;;21.20;11.73;;;7.90;99.90;;;;;;5010559;28;20049;-78
2020/12/15 08:03:02;;;;;;;28.35;13.93;;;7.80;99.90;;;;;;5006860;28;20046;-77
2020/12/15 08:05:31;;;;;;;28.70;13.63;;;7.80;99.90;;;;;;5007089;28;20060;-77
2020/12/15 08:08:01;;;;;;;25.38;13.65;;;7.70;99.90;;;;;;5004571;28;20043;-76
2020/12/15 08:10:31;;;;;;;22.92;12.48;;;7.80;99.90;;;;;;5000294;28;20041;-78
2020/12/15 08:13:05;;;;;;;17.20;10.10;;;7.70;99.90;;;;;;5006835;28;20508;-77
2020/12/15 08:15:40;;;;;;;23.05;10.60;;;7.80;99.90;;;;;;5009226;28;20064;-77
2020/12/15 08:18:09;;;;;;;17.52;8.95;;;7.90;99.90;;;;;;4994468;28;20460;-78
2020/12/15 08:20:37;;;;;;;18.95;8.68;;;7.80;99.90;;;;;;4988955;28;20101;-76
2020/12/15 08:23:11;;;;;;;16.17;7.78;;;7.90;99.90;;;;;;5005831;28;20115;-77
2020/12/15 08:25:43;;;;;;;21.45;8.43;;;7.90;99.90;;;;;;4991028;28;20386;-78
2020/12/15 08:28:22;;;;;;;17.75;8.10;;;7.80;99.90;;;;;;5009038;28;20477;-77
2020/12/15 08:30:57;;;;;;;17.17;7.57;;;7.90;99.90;;;;;;4992416;28;20050;-77
2020/12/15 08:33:30;;;;;;;14.98;7.45;;;7.80;99.90;;;;;;4996119;28;20050;-78
2020/12/15 08:35:59;;;;;;;15.35;7.68;;;7.80;99.90;;;;;;4987174;28;20137;-76
2020/12/15 08:38:26;;;;;;;13.43;7.43;;;7.90;99.90;;;;;;5007527;28;20050;-75
2020/12/15 08:40:54;;;;;;;14.20;6.80;;;7.90;99.90;;;;;;5000897;28;20046;-79
2020/12/15 08:43:22;;;;;;;13.18;6.80;;;7.90;99.90;;;;;;4999812;28;20054;-79
2020/12/15 08:45:53;;;;;;;14.45;6.50;;;7.80;99.90;;;;;;4987819;28;20060;-76
2020/12/15 08:48:24;;;;;;;10.45;6.22;;;8.00;99.90;;;;;;5000946;28;20796;-79
2020/12/15 08:50:52;;;;;;;13.98;6.38;;;8.00;99.90;;;;;;5003328;28;20060;-78
2020/12/15 08:53:20;;;;;;;9.90;5.60;;;8.00;99.90;;;;;;5004750;28;20429;-80
2020/12/15 08:55:49;;;;;;;13.30;5.95;;;8.20;99.90;;;;;;4990324;28;20120;-79
2020/12/15 08:58:17;;;;;;;11.73;5.65;;;8.20;99.90;;;;;;4972982;28;20053;-80
2020/12/15 09:00:46;;;;;;;11.13;5.63;;;8.30;99.90;;;;;;5001374;28;20053;-78
2020/12/15 09:03:17;;;;;;;9.88;5.38;;;8.40;99.90;;;;;;5003745;28;20049;-79
2020/12/15 09:05:57;;;;;;;12.30;6.10;;;8.40;99.90;;;;;;5001552;28;20049;-78
2020/12/15 09:08:27;;;;;;;9.80;5.35;;;8.40;99.90;;;;;;5004973;28;20073;-78
2020/12/15 09:10:58;;;;;;;9.80;5.50;;;8.50;99.90;;;;;;4983519;28;20045;-77
2020/12/15 09:13:25;;;;;;;10.77;5.77;;;8.60;99.90;;;;;;5002785;28;20050;-78
2020/12/15 09:15:56;;;;;;;11.18;6.25;;;8.60;99.90;;;;;;4987252;28;20288;-77
2020/12/15 09:18:29;;;;;;;9.57;5.38;;;8.50;99.90;;;;;;4998337;28;20058;-75
2020/12/15 09:21:07;;;;;;;10.90;5.65;;;8.60;99.90;;;;;;4999579;28;20050;-77
2020/12/15 09:23:33;;;;;;;12.70;5.90;;;8.60;99.90;;;;;;5003734;28;20050;-76
2020/12/15 09:26:00;;;;;;;9.20;5.43;;;8.70;99.90;;;;;;5003096;28;20052;-77
2020/12/15 09:28:28;;;;;;;13.02;5.43;;;8.70;99.90;;;;;;4996503;28;20378;-78
2020/12/15 09:30:55;;;;;;;13.43;5.55;;;8.70;99.90;;;;;;5003871;28;20046;-77
2020/12/15 09:33:22;;;;;;;9.75;5.45;;;8.70;99.90;;;;;;5003479;28;20058;-77
2020/12/15 09:35:49;;;;;;;8.55;5.00;;;8.80;99.90;;;;;;5003927;28;20049;-78
2020/12/15 09:38:16;;;;;;;8.70;4.70;;;8.80;99.90;;;;;;5004172;28;20642;-78
2020/12/15 09:40:42;;;;;;;10.15;4.72;;;8.90;99.90;;;;;;4999850;28;20046;-77
2020/12/15 09:43:09;;;;;;;10.73;5.07;;;8.90;99.90;;;;;;5004684;28;20425;-78
2020/12/15 09:45:49;;;;;;;9.05;4.93;;;8.90;99.90;;;;;;4999897;28;20756;-79
2020/12/15 09:48:15;;;;;;;12.98;5.10;;;9.00;99.90;;;;;;5007608;28;20595;-79
2020/12/15 09:50:42;;;;;;;10.55;4.88;;;9.10;99.90;;;;;;5004970;28;20052;-79
2020/12/15 09:53:09;;;;;;;7.18;4.65;;;9.10;99.90;;;;;;5009788;28;20129;-79
2020/12/15 09:55:35;;;;;;;11.63;5.32;;;9.20;99.90;;;;;;5007280;28;20056;-77
2020/12/15 09:58:02;;;;;;;9.90;4.95;;;9.20;99.90;;;;;;5001805;28;20045;-79
2020/12/15 10:00:30;;;;;;;11.15;5.25;;;9.20;99.90;;;;;;5003332;28;20060;-79
2020/12/15 10:02:56;;;;;;;12.05;5.25;;;9.20;99.90;;;;;;4989470;28;20054;-79
2020/12/15 10:05:23;;;;;;;11.27;4.97;;;9.20;99.90;;;;;;4987929;28;20084;-78
2020/12/15 10:07:50;;;;;;;10.85;5.68;;;9.10;99.90;;;;;;5006856;28;20057;-81
2020/12/15 10:10:17;;;;;;;9.45;4.93;;;9.10;99.90;;;;;;5000198;28;20054;-78
2020/12/15 10:12:45;;;;;;;9.00;4.82;;;9.10;99.90;;;;;;4990213;28;20066;-80
2020/12/15 10:15:13;;;;;;;12.48;5.05;;;9.10;99.90;;;;;;5004003;28;20058;-80
2020/12/15 10:17:41;;;;;;;9.73;4.82;;;9.10;99.90;;;;;;5009851;28;20049;-81
2020/12/15 10:20:08;;;;;;;8.93;5.30;;;9.10;99.90;;;;;;5005413;28;20050;-80
2020/12/15 10:22:35;;;;;;;8.15;5.10;;;9.10;99.90;;;;;;5006183;28;20077;-81
2020/12/15 10:25:04;;;;;;;8.93;4.55;;;9.10;99.90;;;;;;5008487;28;20571;-80
2020/12/15 10:27:31;;;;;;;12.45;5.20;;;9.10;99.90;;;;;;4992514;28;20053;-80
2020/12/15 10:29:57;;;;;;;7.65;4.80;;;9.10;99.90;;;;;;5008326;28;20049;-78
2020/12/15 10:32:25;;;;;;;8.57;4.53;;;9.20;99.90;;;;;;4990825;28;20080;-78
2020/12/15 10:34:52;;;;;;;8.80;4.47;;;9.10;99.90;;;;;;4986591;28;20093;-77
2020/12/15 10:37:23;;;;;;;14.10;5.05;;;9.00;99.90;;;;;;5001754;28;20061;-79
2020/12/15 10:39:49;;;;;;;;;;;8.90;99.90;;;;;;5008509;28;20054;-78
2020/12/15 10:42:16;;;;;;;7.63;4.50;;;9.00;99.90;;;;;;4988439;28;19926;-79
2020/12/15 10:44:44;;;;;;;8.52;4.80;;;9.10;99.90;;;;;;5009183;28;20050;-80
2020/12/15 10:47:11;;;;;;;7.75;4.50;;;9.10;99.90;;;;;;5002858;28;20060;-77
2020/12/15 10:49:37;;;;;;;9.93;4.68;;;9.10;99.90;;;;;;5004545;28;20127;-75
2020/12/15 10:52:04;;;;;;;13.15;5.55;;;9.20;99.90;;;;;;4999852;28;20050;-80
2020/12/15 10:54:31;;;;;;;8.35;4.88;;;9.10;99.90;;;;;;5002609;28;20050;-78
2020/12/15 10:56:57;;;;;;;7.25;4.75;;;9.10;99.90;;;;;;5001548;28;20050;-81
2020/12/15 10:59:23;;;;;;;9.00;4.82;;;9.10;99.90;;;;;;5003965;28;20069;-80
2020/12/15 11:01:53;;;;;;;8.05;4.97;;;9.10;99.90;;;;;;5000549;28;20072;-76
2020/12/15 11:04:20;;;;;;;8.77;5.03;;;9.20;99.90;;;;;;5003458;28;20147;-78
2020/12/15 11:06:47;;;;;;;7.78;4.90;;;9.20;99.90;;;;;;4988881;28;20312;-80
2020/12/15 11:09:15;;;;;;;10.80;4.80;;;9.20;99.90;;;;;;5004536;28;20053;-82
2020/12/15 11:11:48;;;;;;;9.35;4.90;;;9.10;99.90;;;;;;4989757;28;20122;-76
2020/12/15 11:14:15;;;;;;;10.32;5.22;;;9.20;99.90;;;;;;5001451;28;20493;-78
2020/12/15 11:17:03;;;;;;;9.45;4.90;;;9.20;99.90;;;;;;4998284;28;20123;-77
2020/12/15 11:19:30;;;;;;;14.13;5.47;;;9.20;99.90;;;;;;4991179;28;20050;-80
2020/12/15 11:21:57;;;;;;;8.52;5.00;;;9.20;99.90;;;;;;5001450;28;20060;-79
2020/12/15 11:24:23;;;;;;;8.73;4.97;;;9.20;99.90;;;;;;5003018;28;20519;-76
2020/12/15 11:26:52;;;;;;;8.20;4.93;;;9.20;99.90;;;;;;5000621;28;20104;-79
2020/12/15 11:29:19;;;;;;;8.15;4.80;;;9.20;99.90;;;;;;5001716;28;20421;-79
2020/12/15 11:31:52;;;;;;;10.15;4.97;;;9.20;99.90;;;;;;5005575;28;20070;-79
2020/12/15 11:34:19;;;;;;;10.93;5.75;;;9.20;99.90;;;;;;5002457;28;20050;-79
2020/12/15 11:36:51;;;;;;;10.27;5.53;;;9.20;99.90;;;;;;4989299;28;20058;-81
2020/12/15 11:39:17;;;;;;;10.00;5.20;;;9.20;99.90;;;;;;4984966;28;20057;-80
2020/12/15 11:41:46;;;;;;;14.15;6.13;;;9.30;99.90;;;;;;4989174;28;20045;-80
2020/12/15 11:44:12;;;;;;;18.02;7.35;;;9.20;99.90;;;;;;4991111;28;20053;-78
2020/12/15 11:46:56;;;;;;;14.10;7.30;;;9.30;99.90;;;;;;4984172;28;20049;-79
2020/12/15 11:49:23;;;;;;;15.10;7.38;;;9.20;99.90;;;;;;4987258;28;20174;-78
2020/12/15 11:51:56;;;;;;;11.85;7.38;;;9.30;99.90;;;;;;5005166;28;20414;-80
2020/12/15 11:54:24;;;;;;;14.55;7.30;;;9.30;99.90;;;;;;5005139;28;20069;-78
2020/12/15 11:56:51;;;;;;;15.48;7.53;;;9.30;99.90;;;;;;5001670;28;20437;-77
2020/12/15 11:59:20;;;;;;;10.95;6.60;;;9.30;99.90;;;;;;4989528;28;20045;-78
2020/12/15 12:01:46;;;;;;;11.00;6.00;;;9.40;99.90;;;;;;5002207;28;20049;-76
2020/12/15 12:04:13;;;;;;;10.32;5.68;;;9.40;99.90;;;;;;5004898;28;20049;-77
2020/12/15 12:06:40;;;;;;;9.80;5.60;;;9.50;99.90;;;;;;4988965;28;20045;-78
2020/12/15 12:09:06;;;;;;;15.35;5.85;;;9.50;99.90;;;;;;4998564;28;20046;-77
2020/12/15 12:11:33;;;;;;;10.02;5.45;;;9.50;99.90;;;;;;4993893;28;20109;-77
2020/12/15 12:13:59;;;;;;;8.90;5.07;;;9.60;99.90;;;;;;5004186;28;20065;-76
2020/12/15 12:16:27;;;;;;;9.15;4.95;;;9.60;99.90;;;;;;5002294;28;20050;-76
2020/12/15 12:18:53;;;;;;;9.50;5.03;;;9.60;99.90;;;;;;5003899;28;20049;-77
2020/12/15 12:21:20;;;;;;;11.55;5.15;;;9.70;99.90;;;;;;4987620;28;20093;-76
2020/12/15 12:23:46;;;;;;;8.02;5.03;;;9.60;99.90;;;;;;4975705;28;20119;-76
2020/12/15 12:26:16;;;;;;;8.23;4.70;;;9.60;99.90;;;;;;4995005;28;20489;-77
2020/12/15 12:28:43;;;;;;;8.05;4.13;;;9.70;99.90;;;;;;4981672;28;20054;-77
2020/12/15 12:31:12;;;;;;;7.97;4.85;;;9.70;99.90;;;;;;4999548;28;20049;-76
2020/12/15 12:33:39;;;;;;;10.60;4.75;;;9.70;99.90;;;;;;4977669;28;20095;-76
2020/12/15 12:36:06;;;;;;;7.55;4.50;;;9.70;99.90;;;;;;5000329;28;20053;-77
2020/12/15 12:38:32;;;;;;;7.30;4.90;;;9.70;99.90;;;;;;5004392;28;20057;-77
2020/12/15 12:40:59;;;;;;;9.65;4.88;;;9.70;99.90;;;;;;4989186;28;20069;-78
2020/12/15 12:43:25;;;;;;;9.88;4.88;;;9.70;99.90;;;;;;5001618;28;20066;-79
2020/12/15 12:45:52;;;;;;;7.53;4.72;;;9.70;99.90;;;;;;4980975;28;20086;-78
2020/12/15 12:48:19;;;;;;;10.07;4.72;;;9.70;99.90;;;;;;4996374;28;20757;-76
2020/12/15 12:50:46;;;;;;;9.88;5.00;;;9.70;99.90;;;;;;4982982;28;20065;-76
2020/12/15 12:53:14;;;;;;;10.98;5.45;;;9.70;99.90;;;;;;4994574;28;20062;-76
2020/12/15 12:55:40;;;;;;;9.48;5.38;;;9.70;99.90;;;;;;4994783;28;20064;-79